sensor_id;sensor_type;location;lat;lon;timestamp;P1;durP1;ratioP1;P2;durP2;ratioP2
13291;SDS011;6714;53.056;8.690;2022-10-26T00:01:04;4.53;;;3.60;;
13291;SDS011;6714;53.056;8.690;2022-10-26T00:03:47;3.43;;;3.13;;
13291;SDS011;6714;53.056;8.690;2022-10-26T00:06:29;5.63;;;3.23;;
13291;SDS011;6714;53.056;8.690;2022-10-26T00:09:11;3.70;;;3.40;;
13291;SDS011;6714;53.056;8.690;2022-10-26T00:11:53;2.90;;;2.70;;
13291;SDS011;6714;53.056;8.690;2022-10-26T00:14:35;3.07;;;2.80;;
13291;SDS011;6714;53.056;8.690;2022-10-26T00:17:19;2.83;;;2.63;;
13291;SDS011;6714;53.056;8.690;2022-10-26T00:20:01;2.90;;;2.60;;
13291;SDS011;6714;53.056;8.690;2022-10-26T00:22:43;2.83;;;2.63;;
13291;SDS011;6714;53.056;8.690;2022-10-26T00:25:25;2.50;;;2.30;;
13291;SDS011;6714;53.056;8.690;2022-10-26T00:28:07;3.27;;;3.07;;
13291;SDS011;6714;53.056;8.690;2022-10-26T00:30:50;3.13;;;2.83;;
13291;SDS011;6714;53.056;8.690;2022-10-26T00:33:34;2.93;;;2.73;;
13291;SDS011;6714;53.056;8.690;2022-10-26T00:36:16;3.47;;;2.87;;
13291;SDS011;6714;53.056;8.690;2022-10-26T00:38:58;3.20;;;2.90;;
13291;SDS011;6714;53.056;8.690;2022-10-26T00:41:41;3.27;;;2.97;;
13291;SDS011;6714;53.056;8.690;2022-10-26T00:47:26;2.83;;;2.63;;
13291;SDS011;6714;53.056;8.690;2022-10-26T00:50:12;3.40;;;3.10;;
13291;SDS011;6714;53.056;8.690;2022-10-26T00:52:56;3.07;;;2.87;;
13291;SDS011;6714;53.056;8.690;2022-10-26T00:55:39;3.00;;;2.80;;
13291;SDS011;6714;53.056;8.690;2022-10-26T00:58:22;4.43;;;3.47;;
13291;SDS011;6714;53.056;8.690;2022-10-26T01:01:05;3.27;;;2.97;;
13291;SDS011;6714;53.056;8.690;2022-10-26T01:03:48;3.13;;;2.93;;
13291;SDS011;6714;53.056;8.690;2022-10-26T01:06:32;3.30;;;3.00;;
13291;SDS011;6714;53.056;8.690;2022-10-26T01:09:15;3.53;;;3.23;;
13291;SDS011;6714;53.056;8.690;2022-10-26T01:11:57;3.50;;;3.30;;
13291;SDS011;6714;53.056;8.690;2022-10-26T01:14:40;5.60;;;3.43;;
13291;SDS011;6714;53.056;8.690;2022-10-26T01:17:26;3.87;;;3.30;;
13291;SDS011;6714;53.056;8.690;2022-10-26T01:23:12;3.60;;;2.80;;
13291;SDS011;6714;53.056;8.690;2022-10-26T01:26:08;3.03;;;2.40;;
13291;SDS011;6714;53.056;8.690;2022-10-26T01:29:01;3.00;;;2.80;;
13291;SDS011;6714;53.056;8.690;2022-10-26T01:31:51;3.20;;;2.90;;
13291;SDS011;6714;53.056;8.690;2022-10-26T01:34:35;2.73;;;2.53;;
13291;SDS011;6714;53.056;8.690;2022-10-26T01:37:23;4.60;;;3.30;;
13291;SDS011;6714;53.056;8.690;2022-10-26T01:40:08;4.67;;;3.90;;
13291;SDS011;6714;53.056;8.690;2022-10-26T01:42:52;4.03;;;3.37;;
13291;SDS011;6714;53.056;8.690;2022-10-26T01:45:36;3.33;;;3.03;;
13291;SDS011;6714;53.056;8.690;2022-10-26T01:48:22;3.47;;;3.17;;
13291;SDS011;6714;53.056;8.690;2022-10-26T01:51:05;3.47;;;3.17;;
13291;SDS011;6714;53.056;8.690;2022-10-26T01:53:48;3.37;;;2.80;;
13291;SDS011;6714;53.056;8.690;2022-10-26T01:56:30;3.80;;;3.50;;
13291;SDS011;6714;53.056;8.690;2022-10-26T01:59:21;3.20;;;2.90;;
13291;SDS011;6714;53.056;8.690;2022-10-26T02:08:18;4.50;;;2.80;;
13291;SDS011;6714;53.056;8.690;2022-10-26T02:11:07;3.50;;;3.20;;
13291;SDS011;6714;53.056;8.690;2022-10-26T02:13:52;3.27;;;2.97;;
13291;SDS011;6714;53.056;8.690;2022-10-26T02:16:36;3.37;;;3.07;;
13291;SDS011;6714;53.056;8.690;2022-10-26T02:19:26;4.50;;;3.97;;
13291;SDS011;6714;53.056;8.690;2022-10-26T02:22:12;3.77;;;3.47;;
13291;SDS011;6714;53.056;8.690;2022-10-26T02:24:56;3.30;;;3.10;;
13291;SDS011;6714;53.056;8.690;2022-10-26T02:27:41;3.77;;;3.37;;
13291;SDS011;6714;53.056;8.690;2022-10-26T02:30:24;3.90;;;3.40;;
13291;SDS011;6714;53.056;8.690;2022-10-26T02:33:06;5.63;;;3.40;;
13291;SDS011;6714;53.056;8.690;2022-10-26T02:35:52;4.00;;;3.60;;
13291;SDS011;6714;53.056;8.690;2022-10-26T02:38:35;4.43;;;4.00;;
13291;SDS011;6714;53.056;8.690;2022-10-26T02:41:20;4.87;;;4.20;;
13291;SDS011;6714;53.056;8.690;2022-10-26T02:44:03;4.30;;;3.90;;
13291;SDS011;6714;53.056;8.690;2022-10-26T02:46:48;4.93;;;4.47;;
13291;SDS011;6714;53.056;8.690;2022-10-26T02:49:31;5.50;;;5.00;;
13291;SDS011;6714;53.056;8.690;2022-10-26T02:52:15;8.00;;;6.63;;
13291;SDS011;6714;53.056;8.690;2022-10-26T02:54:59;8.33;;;6.83;;
13291;SDS011;6714;53.056;8.690;2022-10-26T02:57:44;8.20;;;7.30;;
13291;SDS011;6714;53.056;8.690;2022-10-26T03:00:28;9.03;;;7.97;;
13291;SDS011;6714;53.056;8.690;2022-10-26T03:03:11;10.97;;;7.87;;
13291;SDS011;6714;53.056;8.690;2022-10-26T03:05:54;8.17;;;7.13;;
13291;SDS011;6714;53.056;8.690;2022-10-26T03:08:36;9.73;;;8.37;;
13291;SDS011;6714;53.056;8.690;2022-10-26T03:11:18;10.87;;;8.67;;
13291;SDS011;6714;53.056;8.690;2022-10-26T03:14:02;11.97;;;9.50;;
13291;SDS011;6714;53.056;8.690;2022-10-26T03:16:44;14.73;;;10.30;;
13291;SDS011;6714;53.056;8.690;2022-10-26T03:19:26;12.20;;;10.60;;
13291;SDS011;6714;53.056;8.690;2022-10-26T03:22:08;13.17;;;9.67;;
13291;SDS011;6714;53.056;8.690;2022-10-26T03:24:51;10.97;;;9.67;;
13291;SDS011;6714;53.056;8.690;2022-10-26T03:27:33;13.23;;;9.43;;
13291;SDS011;6714;53.056;8.690;2022-10-26T03:30:16;10.63;;;8.80;;
13291;SDS011;6714;53.056;8.690;2022-10-26T03:32:58;12.13;;;9.90;;
13291;SDS011;6714;53.056;8.690;2022-10-26T03:35:41;13.30;;;10.73;;
13291;SDS011;6714;53.056;8.690;2022-10-26T03:38:23;13.10;;;9.53;;
13291;SDS011;6714;53.056;8.690;2022-10-26T03:41:05;12.20;;;10.70;;
13291;SDS011;6714;53.056;8.690;2022-10-26T03:43:47;12.23;;;10.40;;
13291;SDS011;6714;53.056;8.690;2022-10-26T03:46:31;14.57;;;10.63;;
13291;SDS011;6714;53.056;8.690;2022-10-26T03:49:13;14.37;;;11.50;;
13291;SDS011;6714;53.056;8.690;2022-10-26T03:51:55;14.00;;;11.87;;
13291;SDS011;6714;53.056;8.690;2022-10-26T03:54:37;16.13;;;11.77;;
13291;SDS011;6714;53.056;8.690;2022-10-26T03:57:19;15.70;;;11.17;;
13291;SDS011;6714;53.056;8.690;2022-10-26T04:00:02;15.77;;;11.30;;
13291;SDS011;6714;53.056;8.690;2022-10-26T04:02:51;15.23;;;10.77;;
13291;SDS011;6714;53.056;8.690;2022-10-26T04:05:34;16.53;;;11.10;;
13291;SDS011;6714;53.056;8.690;2022-10-26T04:08:16;16.93;;;12.20;;
13291;SDS011;6714;53.056;8.690;2022-10-26T04:10:59;16.27;;;11.60;;
13291;SDS011;6714;53.056;8.690;2022-10-26T04:13:41;12.53;;;9.97;;
13291;SDS011;6714;53.056;8.690;2022-10-26T04:16:23;12.97;;;10.67;;
13291;SDS011;6714;53.056;8.690;2022-10-26T04:19:06;13.33;;;10.50;;
13291;SDS011;6714;53.056;8.690;2022-10-26T04:21:49;12.60;;;10.43;;
13291;SDS011;6714;53.056;8.690;2022-10-26T04:24:31;11.60;;;9.63;;
13291;SDS011;6714;53.056;8.690;2022-10-26T04:27:13;15.47;;;11.50;;
13291;SDS011;6714;53.056;8.690;2022-10-26T04:29:56;14.27;;;10.73;;
13291;SDS011;6714;53.056;8.690;2022-10-26T04:32:38;10.77;;;9.30;;
13291;SDS011;6714;53.056;8.690;2022-10-26T04:35:21;11.53;;;9.50;;
13291;SDS011;6714;53.056;8.690;2022-10-26T04:38:04;12.63;;;9.70;;
13291;SDS011;6714;53.056;8.690;2022-10-26T04:40:46;11.40;;;9.30;;
13291;SDS011;6714;53.056;8.690;2022-10-26T04:43:31;11.10;;;9.07;;
13291;SDS011;6714;53.056;8.690;2022-10-26T04:46:13;11.00;;;9.20;;
13291;SDS011;6714;53.056;8.690;2022-10-26T04:48:56;10.67;;;9.27;;
13291;SDS011;6714;53.056;8.690;2022-10-26T04:51:39;9.87;;;8.87;;
13291;SDS011;6714;53.056;8.690;2022-10-26T04:54:21;10.63;;;8.87;;
13291;SDS011;6714;53.056;8.690;2022-10-26T04:57:03;13.53;;;10.23;;
13291;SDS011;6714;53.056;8.690;2022-10-26T04:59:46;10.93;;;8.63;;
13291;SDS011;6714;53.056;8.690;2022-10-26T05:02:28;11.80;;;9.37;;
13291;SDS011;6714;53.056;8.690;2022-10-26T05:05:10;12.03;;;9.67;;
13291;SDS011;6714;53.056;8.690;2022-10-26T05:07:54;9.97;;;8.90;;
13291;SDS011;6714;53.056;8.690;2022-10-26T05:10:36;10.87;;;9.20;;
13291;SDS011;6714;53.056;8.690;2022-10-26T05:13:18;11.80;;;9.70;;
13291;SDS011;6714;53.056;8.690;2022-10-26T05:16:01;10.50;;;9.17;;
13291;SDS011;6714;53.056;8.690;2022-10-26T05:18:43;13.07;;;9.47;;
13291;SDS011;6714;53.056;8.690;2022-10-26T05:21:25;12.77;;;9.93;;
13291;SDS011;6714;53.056;8.690;2022-10-26T05:24:09;8.80;;;7.60;;
13291;SDS011;6714;53.056;8.690;2022-10-26T05:26:51;10.03;;;7.83;;
13291;SDS011;6714;53.056;8.690;2022-10-26T05:29:33;9.87;;;8.73;;
13291;SDS011;6714;53.056;8.690;2022-10-26T05:32:15;8.93;;;8.03;;
13291;SDS011;6714;53.056;8.690;2022-10-26T05:34:57;9.90;;;8.47;;
13291;SDS011;6714;53.056;8.690;2022-10-26T05:37:39;12.07;;;9.93;;
13291;SDS011;6714;53.056;8.690;2022-10-26T05:40:23;13.60;;;10.03;;
13291;SDS011;6714;53.056;8.690;2022-10-26T05:43:05;13.57;;;10.20;;
13291;SDS011;6714;53.056;8.690;2022-10-26T05:45:49;13.67;;;9.50;;
13291;SDS011;6714;53.056;8.690;2022-10-26T05:48:31;10.10;;;8.60;;
13291;SDS011;6714;53.056;8.690;2022-10-26T05:51:13;13.17;;;10.80;;
13291;SDS011;6714;53.056;8.690;2022-10-26T05:53:55;13.27;;;10.20;;
13291;SDS011;6714;53.056;8.690;2022-10-26T05:56:39;14.03;;;9.47;;
13291;SDS011;6714;53.056;8.690;2022-10-26T05:59:22;14.13;;;10.77;;
13291;SDS011;6714;53.056;8.690;2022-10-26T06:02:05;10.77;;;9.13;;
13291;SDS011;6714;53.056;8.690;2022-10-26T06:04:51;12.50;;;10.00;;
13291;SDS011;6714;53.056;8.690;2022-10-26T06:07:35;13.33;;;9.60;;
13291;SDS011;6714;53.056;8.690;2022-10-26T06:10:17;10.40;;;8.73;;
13291;SDS011;6714;53.056;8.690;2022-10-26T06:13:01;10.27;;;8.30;;
13291;SDS011;6714;53.056;8.690;2022-10-26T06:15:45;9.47;;;8.47;;
13291;SDS011;6714;53.056;8.690;2022-10-26T06:18:32;8.60;;;7.80;;
13291;SDS011;6714;53.056;8.690;2022-10-26T06:21:21;9.57;;;8.03;;
13291;SDS011;6714;53.056;8.690;2022-10-26T06:24:08;10.20;;;7.90;;
13291;SDS011;6714;53.056;8.690;2022-10-26T06:26:55;10.47;;;8.33;;
13291;SDS011;6714;53.056;8.690;2022-10-26T06:29:43;8.97;;;7.60;;
13291;SDS011;6714;53.056;8.690;2022-10-26T06:32:29;8.80;;;7.90;;
13291;SDS011;6714;53.056;8.690;2022-10-26T06:35:14;9.97;;;7.90;;
13291;SDS011;6714;53.056;8.690;2022-10-26T06:38:01;9.90;;;8.10;;
13291;SDS011;6714;53.056;8.690;2022-10-26T06:40:44;9.77;;;7.40;;
13291;SDS011;6714;53.056;8.690;2022-10-26T06:43:28;12.00;;;8.20;;
13291;SDS011;6714;53.056;8.690;2022-10-26T06:46:15;9.20;;;8.03;;
13291;SDS011;6714;53.056;8.690;2022-10-26T06:49:06;7.83;;;7.03;;
13291;SDS011;6714;53.056;8.690;2022-10-26T06:51:50;10.47;;;8.60;;
13291;SDS011;6714;53.056;8.690;2022-10-26T06:54:38;8.30;;;7.20;;
13291;SDS011;6714;53.056;8.690;2022-10-26T06:57:25;12.97;;;9.20;;
13291;SDS011;6714;53.056;8.690;2022-10-26T07:00:13;11.33;;;8.80;;
13291;SDS011;6714;53.056;8.690;2022-10-26T07:02:57;11.70;;;9.40;;
13291;SDS011;6714;53.056;8.690;2022-10-26T07:05:39;11.13;;;8.73;;
13291;SDS011;6714;53.056;8.690;2022-10-26T07:08:22;9.77;;;8.30;;
13291;SDS011;6714;53.056;8.690;2022-10-26T07:11:04;10.83;;;8.20;;
13291;SDS011;6714;53.056;8.690;2022-10-26T07:13:48;10.73;;;8.87;;
13291;SDS011;6714;53.056;8.690;2022-10-26T07:16:30;11.40;;;9.80;;
13291;SDS011;6714;53.056;8.690;2022-10-26T07:19:14;10.50;;;8.53;;
13291;SDS011;6714;53.056;8.690;2022-10-26T07:21:56;9.47;;;7.57;;
13291;SDS011;6714;53.056;8.690;2022-10-26T07:24:39;10.67;;;8.17;;
13291;SDS011;6714;53.056;8.690;2022-10-26T07:27:21;11.97;;;9.67;;
13291;SDS011;6714;53.056;8.690;2022-10-26T07:30:04;9.33;;;8.03;;
13291;SDS011;6714;53.056;8.690;2022-10-26T07:32:46;12.10;;;9.10;;
13291;SDS011;6714;53.056;8.690;2022-10-26T07:35:30;10.17;;;8.13;;
13291;SDS011;6714;53.056;8.690;2022-10-26T07:38:13;9.90;;;8.50;;
13291;SDS011;6714;53.056;8.690;2022-10-26T07:40:55;11.07;;;8.87;;
13291;SDS011;6714;53.056;8.690;2022-10-26T07:43:37;11.37;;;9.00;;
13291;SDS011;6714;53.056;8.690;2022-10-26T07:46:19;9.50;;;7.60;;
13291;SDS011;6714;53.056;8.690;2022-10-26T07:49:02;11.87;;;10.00;;
13291;SDS011;6714;53.056;8.690;2022-10-26T07:51:45;10.80;;;9.20;;
13291;SDS011;6714;53.056;8.690;2022-10-26T07:54:27;9.73;;;8.33;;
13291;SDS011;6714;53.056;8.690;2022-10-26T07:57:09;10.17;;;7.93;;
13291;SDS011;6714;53.056;8.690;2022-10-26T07:59:52;9.77;;;7.53;;
13291;SDS011;6714;53.056;8.690;2022-10-26T08:02:34;11.47;;;9.70;;
13291;SDS011;6714;53.056;8.690;2022-10-26T08:05:16;15.83;;;9.17;;
13291;SDS011;6714;53.056;8.690;2022-10-26T08:07:59;8.93;;;7.80;;
13291;SDS011;6714;53.056;8.690;2022-10-26T08:10:42;10.43;;;8.80;;
13291;SDS011;6714;53.056;8.690;2022-10-26T08:13:24;13.77;;;9.90;;
13291;SDS011;6714;53.056;8.690;2022-10-26T08:16:06;9.93;;;8.17;;
13291;SDS011;6714;53.056;8.690;2022-10-26T08:18:49;8.80;;;7.93;;
13291;SDS011;6714;53.056;8.690;2022-10-26T08:21:31;13.27;;;10.53;;
13291;SDS011;6714;53.056;8.690;2022-10-26T08:24:15;9.07;;;8.17;;
13291;SDS011;6714;53.056;8.690;2022-10-26T08:26:57;10.67;;;8.13;;
13291;SDS011;6714;53.056;8.690;2022-10-26T08:29:39;9.47;;;8.47;;
13291;SDS011;6714;53.056;8.690;2022-10-26T08:32:21;9.53;;;7.93;;
13291;SDS011;6714;53.056;8.690;2022-10-26T08:35:04;10.73;;;8.40;;
13291;SDS011;6714;53.056;8.690;2022-10-26T08:37:46;12.23;;;9.57;;
13291;SDS011;6714;53.056;8.690;2022-10-26T08:40:31;12.27;;;9.10;;
13291;SDS011;6714;53.056;8.690;2022-10-26T08:43:14;11.67;;;9.07;;
13291;SDS011;6714;53.056;8.690;2022-10-26T08:45:58;10.97;;;8.53;;
13291;SDS011;6714;53.056;8.690;2022-10-26T08:48:42;9.97;;;8.33;;
13291;SDS011;6714;53.056;8.690;2022-10-26T08:51:26;15.27;;;9.23;;
13291;SDS011;6714;53.056;8.690;2022-10-26T08:54:15;9.93;;;8.83;;
13291;SDS011;6714;53.056;8.690;2022-10-26T08:57:01;13.63;;;9.80;;
13291;SDS011;6714;53.056;8.690;2022-10-26T08:59:46;10.20;;;9.13;;
13291;SDS011;6714;53.056;8.690;2022-10-26T09:02:29;8.90;;;7.73;;
13291;SDS011;6714;53.056;8.690;2022-10-26T09:05:13;11.33;;;8.93;;
13291;SDS011;6714;53.056;8.690;2022-10-26T09:07:57;12.40;;;9.80;;
13291;SDS011;6714;53.056;8.690;2022-10-26T09:10:44;13.50;;;9.37;;
13291;SDS011;6714;53.056;8.690;2022-10-26T09:13:33;11.93;;;8.53;;
13291;SDS011;6714;53.056;8.690;2022-10-26T09:16:22;9.10;;;6.93;;
13291;SDS011;6714;53.056;8.690;2022-10-26T09:19:17;9.57;;;7.83;;
13291;SDS011;6714;53.056;8.690;2022-10-26T09:22:03;9.03;;;7.90;;
13291;SDS011;6714;53.056;8.690;2022-10-26T09:24:48;10.17;;;8.20;;
13291;SDS011;6714;53.056;8.690;2022-10-26T09:27:33;11.53;;;8.83;;
13291;SDS011;6714;53.056;8.690;2022-10-26T09:30:19;8.60;;;7.70;;
13291;SDS011;6714;53.056;8.690;2022-10-26T09:33:02;12.13;;;8.23;;
13291;SDS011;6714;53.056;8.690;2022-10-26T09:35:46;10.27;;;9.17;;
13291;SDS011;6714;53.056;8.690;2022-10-26T09:38:30;12.23;;;9.33;;
13291;SDS011;6714;53.056;8.690;2022-10-26T09:41:15;8.93;;;8.13;;
13291;SDS011;6714;53.056;8.690;2022-10-26T09:44:00;11.87;;;9.03;;
13291;SDS011;6714;53.056;8.690;2022-10-26T09:46:47;12.53;;;9.03;;
13291;SDS011;6714;53.056;8.690;2022-10-26T09:49:32;11.97;;;9.00;;
13291;SDS011;6714;53.056;8.690;2022-10-26T09:52:16;10.97;;;9.00;;
13291;SDS011;6714;53.056;8.690;2022-10-26T09:54:59;10.77;;;8.97;;
13291;SDS011;6714;53.056;8.690;2022-10-26T09:57:41;8.57;;;6.47;;
13291;SDS011;6714;53.056;8.690;2022-10-26T10:00:25;10.50;;;8.80;;
13291;SDS011;6714;53.056;8.690;2022-10-26T10:03:17;10.43;;;7.97;;
13291;SDS011;6714;53.056;8.690;2022-10-26T10:06:13;11.40;;;9.13;;
13291;SDS011;6714;53.056;8.690;2022-10-26T10:09:05;10.13;;;8.23;;
13291;SDS011;6714;53.056;8.690;2022-10-26T10:11:50;9.77;;;8.77;;
13291;SDS011;6714;53.056;8.690;2022-10-26T10:14:36;13.43;;;9.03;;
13291;SDS011;6714;53.056;8.690;2022-10-26T10:17:19;11.17;;;8.57;;
13291;SDS011;6714;53.056;8.690;2022-10-26T10:20:07;11.30;;;9.30;;
13291;SDS011;6714;53.056;8.690;2022-10-26T10:22:56;14.30;;;9.97;;
13291;SDS011;6714;53.056;8.690;2022-10-26T10:25:39;8.87;;;7.97;;
13291;SDS011;6714;53.056;8.690;2022-10-26T10:28:21;11.50;;;9.97;;
13291;SDS011;6714;53.056;8.690;2022-10-26T10:31:05;13.20;;;10.53;;
13291;SDS011;6714;53.056;8.690;2022-10-26T10:33:49;12.87;;;10.50;;
13291;SDS011;6714;53.056;8.690;2022-10-26T10:36:33;13.17;;;9.53;;
13291;SDS011;6714;53.056;8.690;2022-10-26T10:39:30;13.13;;;10.40;;
13291;SDS011;6714;53.056;8.690;2022-10-26T10:42:15;13.27;;;10.63;;
13291;SDS011;6714;53.056;8.690;2022-10-26T10:44:58;13.27;;;9.80;;
13291;SDS011;6714;53.056;8.690;2022-10-26T10:47:40;12.63;;;9.57;;
13291;SDS011;6714;53.056;8.690;2022-10-26T10:50:24;10.80;;;9.63;;
13291;SDS011;6714;53.056;8.690;2022-10-26T10:53:14;14.30;;;9.67;;
13291;SDS011;6714;53.056;8.690;2022-10-26T10:56:05;13.17;;;9.80;;
13291;SDS011;6714;53.056;8.690;2022-10-26T10:58:52;11.77;;;9.20;;
13291;SDS011;6714;53.056;8.690;2022-10-26T11:01:37;11.83;;;8.80;;
13291;SDS011;6714;53.056;8.690;2022-10-26T11:04:24;11.03;;;8.83;;
13291;SDS011;6714;53.056;8.690;2022-10-26T11:07:09;13.60;;;10.03;;
13291;SDS011;6714;53.056;8.690;2022-10-26T11:09:53;14.43;;;9.57;;
13291;SDS011;6714;53.056;8.690;2022-10-26T11:12:39;12.23;;;8.70;;
13291;SDS011;6714;53.056;8.690;2022-10-26T11:15:25;10.33;;;8.80;;
13291;SDS011;6714;53.056;8.690;2022-10-26T11:18:11;9.50;;;8.10;;
13291;SDS011;6714;53.056;8.690;2022-10-26T11:20:55;10.73;;;8.20;;
13291;SDS011;6714;53.056;8.690;2022-10-26T11:23:40;10.67;;;8.70;;
13291;SDS011;6714;53.056;8.690;2022-10-26T11:26:26;11.23;;;7.77;;
13291;SDS011;6714;53.056;8.690;2022-10-26T11:29:11;8.97;;;7.47;;
13291;SDS011;6714;53.056;8.690;2022-10-26T11:31:58;8.63;;;7.70;;
13291;SDS011;6714;53.056;8.690;2022-10-26T11:34:43;9.07;;;7.90;;
13291;SDS011;6714;53.056;8.690;2022-10-26T11:37:29;8.97;;;7.40;;
13291;SDS011;6714;53.056;8.690;2022-10-26T11:40:21;10.40;;;7.17;;
13291;SDS011;6714;53.056;8.690;2022-10-26T11:43:10;9.93;;;8.53;;
13291;SDS011;6714;53.056;8.690;2022-10-26T11:45:56;12.03;;;7.23;;
13291;SDS011;6714;53.056;8.690;2022-10-26T11:48:42;7.30;;;5.67;;
13291;SDS011;6714;53.056;8.690;2022-10-26T11:51:32;7.87;;;6.17;;
13291;SDS011;6714;53.056;8.690;2022-10-26T11:54:18;8.90;;;5.93;;
13291;SDS011;6714;53.056;8.690;2022-10-26T11:57:02;6.87;;;6.07;;
13291;SDS011;6714;53.056;8.690;2022-10-26T11:59:48;7.20;;;6.17;;
13291;SDS011;6714;53.056;8.690;2022-10-26T12:02:31;8.77;;;5.80;;
13291;SDS011;6714;53.056;8.690;2022-10-26T12:05:31;4.57;;;4.00;;
13291;SDS011;6714;53.056;8.690;2022-10-26T12:08:15;9.27;;;5.50;;
13291;SDS011;6714;53.056;8.690;2022-10-26T12:11:01;6.27;;;5.50;;
13291;SDS011;6714;53.056;8.690;2022-10-26T12:13:46;8.90;;;5.53;;
13291;SDS011;6714;53.056;8.690;2022-10-26T12:16:39;5.40;;;4.83;;
13291;SDS011;6714;53.056;8.690;2022-10-26T12:19:24;5.53;;;4.93;;
13291;SDS011;6714;53.056;8.690;2022-10-26T12:22:08;5.63;;;4.60;;
13291;SDS011;6714;53.056;8.690;2022-10-26T12:25:03;4.83;;;3.90;;
13291;SDS011;6714;53.056;8.690;2022-10-26T12:27:51;4.67;;;3.90;;
13291;SDS011;6714;53.056;8.690;2022-10-26T12:30:33;5.47;;;3.73;;
13291;SDS011;6714;53.056;8.690;2022-10-26T12:33:27;3.70;;;2.97;;
13291;SDS011;6714;53.056;8.690;2022-10-26T12:39:23;2.83;;;2.50;;
13291;SDS011;6714;53.056;8.690;2022-10-26T12:42:09;3.87;;;2.57;;
13291;SDS011;6714;53.056;8.690;2022-10-26T12:45:12;4.60;;;2.70;;
13291;SDS011;6714;53.056;8.690;2022-10-26T12:48:02;3.83;;;2.57;;
13291;SDS011;6714;53.056;8.690;2022-10-26T12:50:46;2.53;;;2.30;;
13291;SDS011;6714;53.056;8.690;2022-10-26T12:53:28;5.57;;;2.70;;
13291;SDS011;6714;53.056;8.690;2022-10-26T12:56:10;3.57;;;2.40;;
13291;SDS011;6714;53.056;8.690;2022-10-26T12:59:10;4.57;;;3.13;;
13291;SDS011;6714;53.056;8.690;2022-10-26T13:05:02;2.70;;;2.50;;
13291;SDS011;6714;53.056;8.690;2022-10-26T13:07:50;2.80;;;2.27;;
13291;SDS011;6714;53.056;8.690;2022-10-26T13:10:32;5.07;;;2.70;;
13291;SDS011;6714;53.056;8.690;2022-10-26T13:13:17;4.73;;;2.40;;
13291;SDS011;6714;53.056;8.690;2022-10-26T13:16:01;2.23;;;2.13;;
13291;SDS011;6714;53.056;8.690;2022-10-26T13:18:44;4.17;;;2.60;;
13291;SDS011;6714;53.056;8.690;2022-10-26T13:21:28;3.73;;;3.00;;
13291;SDS011;6714;53.056;8.690;2022-10-26T13:24:12;3.97;;;2.70;;
13291;SDS011;6714;53.056;8.690;2022-10-26T13:30:20;5.27;;;2.90;;
13291;SDS011;6714;53.056;8.690;2022-10-26T13:33:05;2.40;;;2.20;;
13291;SDS011;6714;53.056;8.690;2022-10-26T13:35:53;3.53;;;2.67;;
13291;SDS011;6714;53.056;8.690;2022-10-26T13:38:36;3.47;;;3.17;;
13291;SDS011;6714;53.056;8.690;2022-10-26T13:41:21;2.97;;;2.60;;
13291;SDS011;6714;53.056;8.690;2022-10-26T13:44:05;3.23;;;2.87;;
13291;SDS011;6714;53.056;8.690;2022-10-26T13:46:49;5.77;;;3.10;;
13291;SDS011;6714;53.056;8.690;2022-10-26T13:49:33;4.70;;;3.00;;
13291;SDS011;6714;53.056;8.690;2022-10-26T13:52:18;4.60;;;3.23;;
13291;SDS011;6714;53.056;8.690;2022-10-26T13:55:04;4.73;;;3.20;;
13291;SDS011;6714;53.056;8.690;2022-10-26T13:57:56;3.30;;;3.00;;
13291;SDS011;6714;53.056;8.690;2022-10-26T14:03:38;4.27;;;3.17;;
13291;SDS011;6714;53.056;8.690;2022-10-26T14:06:22;5.13;;;3.20;;
13291;SDS011;6714;53.056;8.690;2022-10-26T14:09:10;3.33;;;2.90;;
13291;SDS011;6714;53.056;8.690;2022-10-26T14:11:53;3.93;;;3.07;;
13291;SDS011;6714;53.056;8.690;2022-10-26T14:14:38;3.60;;;3.03;;
13291;SDS011;6714;53.056;8.690;2022-10-26T14:17:21;3.10;;;2.77;;
13291;SDS011;6714;53.056;8.690;2022-10-26T14:20:10;4.90;;;3.47;;
13291;SDS011;6714;53.056;8.690;2022-10-26T14:22:57;4.50;;;3.00;;
13291;SDS011;6714;53.056;8.690;2022-10-26T14:25:39;4.83;;;3.13;;
13291;SDS011;6714;53.056;8.690;2022-10-26T14:28:23;4.70;;;3.10;;
13291;SDS011;6714;53.056;8.690;2022-10-26T14:31:19;3.57;;;2.97;;
13291;SDS011;6714;53.056;8.690;2022-10-26T14:34:03;3.87;;;2.90;;
13291;SDS011;6714;53.056;8.690;2022-10-26T14:36:47;4.70;;;3.00;;
13291;SDS011;6714;53.056;8.690;2022-10-26T14:39:31;3.23;;;2.77;;
13291;SDS011;6714;53.056;8.690;2022-10-26T14:42:24;4.73;;;2.90;;
13291;SDS011;6714;53.056;8.690;2022-10-26T14:45:17;5.00;;;3.27;;
13291;SDS011;6714;53.056;8.690;2022-10-26T14:48:18;3.37;;;3.00;;
13291;SDS011;6714;53.056;8.690;2022-10-26T14:51:02;4.43;;;3.23;;
13291;SDS011;6714;53.056;8.690;2022-10-26T14:53:47;4.03;;;3.20;;
13291;SDS011;6714;53.056;8.690;2022-10-26T14:56:30;3.80;;;2.80;;
13291;SDS011;6714;53.056;8.690;2022-10-26T14:59:17;4.17;;;2.97;;
13291;SDS011;6714;53.056;8.690;2022-10-26T15:02:00;3.10;;;2.80;;
13291;SDS011;6714;53.056;8.690;2022-10-26T15:04:57;3.90;;;2.90;;
13291;SDS011;6714;53.056;8.690;2022-10-26T15:07:40;3.50;;;3.00;;
13291;SDS011;6714;53.056;8.690;2022-10-26T15:10:43;4.50;;;3.40;;
13291;SDS011;6714;53.056;8.690;2022-10-26T15:13:27;4.97;;;2.93;;
13291;SDS011;6714;53.056;8.690;2022-10-26T15:16:15;4.27;;;3.13;;
13291;SDS011;6714;53.056;8.690;2022-10-26T15:18:58;3.60;;;2.90;;
13291;SDS011;6714;53.056;8.690;2022-10-26T15:21:45;3.73;;;3.30;;
13291;SDS011;6714;53.056;8.690;2022-10-26T15:24:30;4.07;;;3.10;;
13291;SDS011;6714;53.056;8.690;2022-10-26T15:27:13;5.13;;;3.47;;
13291;SDS011;6714;53.056;8.690;2022-10-26T15:30:07;4.50;;;2.87;;
13291;SDS011;6714;53.056;8.690;2022-10-26T15:32:50;4.93;;;3.17;;
13291;SDS011;6714;53.056;8.690;2022-10-26T15:35:32;6.63;;;2.97;;
13291;SDS011;6714;53.056;8.690;2022-10-26T15:38:16;5.07;;;3.17;;
13291;SDS011;6714;53.056;8.690;2022-10-26T15:40:58;4.30;;;3.30;;
13291;SDS011;6714;53.056;8.690;2022-10-26T15:43:40;4.00;;;2.70;;
13291;SDS011;6714;53.056;8.690;2022-10-26T15:46:23;5.10;;;2.80;;
13291;SDS011;6714;53.056;8.690;2022-10-26T15:49:05;3.60;;;2.70;;
13291;SDS011;6714;53.056;8.690;2022-10-26T15:51:48;5.30;;;3.10;;
13291;SDS011;6714;53.056;8.690;2022-10-26T15:54:32;3.60;;;2.93;;
13291;SDS011;6714;53.056;8.690;2022-10-26T15:57:14;2.43;;;2.23;;
13291;SDS011;6714;53.056;8.690;2022-10-26T15:59:56;3.77;;;2.97;;
13291;SDS011;6714;53.056;8.690;2022-10-26T16:02:38;4.43;;;3.00;;
13291;SDS011;6714;53.056;8.690;2022-10-26T16:05:22;2.93;;;2.63;;
13291;SDS011;6714;53.056;8.690;2022-10-26T16:08:04;3.13;;;2.83;;
13291;SDS011;6714;53.056;8.690;2022-10-26T16:10:48;5.83;;;2.80;;
13291;SDS011;6714;53.056;8.690;2022-10-26T16:13:31;2.87;;;2.63;;
13291;SDS011;6714;53.056;8.690;2022-10-26T16:16:13;3.57;;;2.63;;
13291;SDS011;6714;53.056;8.690;2022-10-26T16:18:56;3.30;;;2.70;;
13291;SDS011;6714;53.056;8.690;2022-10-26T16:21:38;4.03;;;2.77;;
13291;SDS011;6714;53.056;8.690;2022-10-26T16:24:20;4.10;;;2.80;;
13291;SDS011;6714;53.056;8.690;2022-10-26T16:27:04;3.80;;;2.63;;
13291;SDS011;6714;53.056;8.690;2022-10-26T16:29:46;8.40;;;3.00;;
13291;SDS011;6714;53.056;8.690;2022-10-26T16:32:28;3.00;;;2.70;;
13291;SDS011;6714;53.056;8.690;2022-10-26T16:35:11;3.73;;;2.50;;
13291;SDS011;6714;53.056;8.690;2022-10-26T16:37:53;3.40;;;2.73;;
13291;SDS011;6714;53.056;8.690;2022-10-26T16:40:35;3.43;;;2.60;;
13291;SDS011;6714;53.056;8.690;2022-10-26T16:43:18;4.33;;;2.80;;
13291;SDS011;6714;53.056;8.690;2022-10-26T16:46:03;3.23;;;2.93;;
13291;SDS011;6714;53.056;8.690;2022-10-26T16:48:46;2.50;;;2.30;;
13291;SDS011;6714;53.056;8.690;2022-10-26T16:51:29;4.40;;;3.37;;
13291;SDS011;6714;53.056;8.690;2022-10-26T16:54:11;4.70;;;3.73;;
13291;SDS011;6714;53.056;8.690;2022-10-26T16:56:53;3.20;;;2.70;;
13291;SDS011;6714;53.056;8.690;2022-10-26T16:59:36;3.00;;;2.77;;
13291;SDS011;6714;53.056;8.690;2022-10-26T17:02:19;2.77;;;2.47;;
13291;SDS011;6714;53.056;8.690;2022-10-26T17:05:01;2.83;;;2.50;;